createdAt,value
2016-10-25T00:00:08.119Z,954.75
2016-10-25T00:01:08.329Z,954.75
2016-10-25T00:02:08.973Z,954.78
2016-10-25T00:03:07.772Z,954.81
2016-10-25T00:04:19.531Z,954.83
2016-10-25T00:05:08.122Z,954.86
2016-10-25T00:06:07.929Z,954.89
2016-10-25T00:07:08.398Z,954.92
2016-10-25T00:08:07.943Z,954.90
2016-10-25T00:09:07.815Z,954.90
2016-10-25T00:10:07.560Z,954.90
2016-10-25T00:11:08.183Z,954.91
2016-10-25T00:12:07.831Z,954.94
2016-10-25T00:13:07.479Z,954.99
2016-10-25T00:14:08.091Z,954.99
2016-10-25T00:15:08.221Z,955.02
2016-10-25T00:16:07.878Z,955.01
2016-10-25T00:17:08.202Z,955.01
2016-10-25T00:18:08.463Z,954.99
2016-10-25T00:19:08.120Z,955.00
2016-10-25T00:20:08.231Z,954.98
2016-10-25T00:21:07.597Z,955.01
2016-10-25T00:22:08.148Z,954.99
2016-10-25T00:23:07.721Z,954.98
2016-10-25T00:24:07.377Z,955.04
2016-10-25T00:25:08.012Z,955.06
2016-10-25T00:26:08.078Z,955.03
2016-10-25T00:27:08.045Z,955.06
2016-10-25T00:28:07.612Z,954.99
2016-10-25T00:29:08.169Z,954.99
2016-10-25T00:30:07.602Z,954.90
2016-10-25T00:31:08.925Z,954.93
2016-10-25T00:32:07.610Z,954.88
2016-10-25T00:33:08.294Z,954.88
2016-10-25T00:34:15.103Z,954.83
2016-10-25T00:35:07.786Z,954.86
2016-10-25T00:36:07.386Z,954.86
2016-10-25T00:37:09.390Z,954.91
2016-10-25T00:38:07.572Z,954.89
2016-10-25T00:39:08.420Z,954.88
2016-10-25T00:40:08.800Z,954.88
2016-10-25T00:41:07.602Z,954.89
2016-10-25T00:42:08.292Z,954.91
2016-10-25T00:43:20.436Z,954.93
2016-10-25T00:44:07.990Z,954.94
2016-10-25T00:45:07.592Z,954.99
2016-10-25T00:46:09.705Z,954.96
2016-10-25T00:47:07.255Z,954.99
2016-10-25T00:48:08.021Z,955.03
2016-10-25T00:49:07.822Z,955.02
2016-10-25T00:50:07.526Z,955.03
2016-10-25T00:51:08.223Z,955.01
2016-10-25T00:52:08.015Z,955.05
2016-10-25T00:53:07.830Z,955.11
2016-10-25T00:54:07.384Z,955.14
2016-10-25T00:55:08.076Z,955.19
2016-10-25T00:56:07.747Z,955.24
2016-10-25T00:57:07.902Z,955.33
2016-10-25T00:58:08.557Z,955.28
2016-10-25T00:59:07.603Z,955.31
2016-10-25T01:00:08.260Z,955.30
2016-10-25T01:01:07.968Z,955.35
2016-10-25T01:02:14.006Z,955.33
2016-10-25T01:03:07.670Z,955.33
2016-10-25T01:04:07.610Z,955.39
2016-10-25T01:05:08.241Z,955.40
2016-10-25T01:06:07.817Z,955.44
2016-10-25T01:07:07.501Z,955.43
2016-10-25T01:08:08.156Z,955.47
2016-10-25T01:09:07.738Z,955.47
2016-10-25T01:10:08.153Z,955.46
2016-10-25T01:11:07.648Z,955.47
2016-10-25T01:12:07.398Z,955.49
2016-10-25T01:13:08.466Z,955.51
2016-10-25T01:14:07.684Z,955.53
2016-10-25T01:15:08.271Z,955.56
2016-10-25T01:16:07.949Z,955.61
2016-10-25T01:17:09.841Z,955.58
2016-10-25T01:18:07.474Z,955.59
2016-10-25T01:19:08.776Z,955.58
2016-10-25T01:20:07.502Z,955.62
2016-10-25T01:21:08.091Z,955.68
2016-10-25T01:22:13.405Z,955.83
2016-10-25T01:23:08.196Z,955.83
2016-10-25T01:24:08.544Z,955.77
2016-10-25T01:25:08.265Z,955.84
2016-10-25T01:26:08.061Z,955.94
2016-10-25T01:27:07.830Z,956.01
2016-10-25T01:28:07.583Z,956.06
2016-10-25T01:29:08.634Z,956.09
2016-10-25T01:30:08.301Z,956.15
2016-10-25T01:31:08.821Z,956.21
2016-10-25T01:32:07.579Z,956.26
2016-10-25T01:33:08.243Z,956.31
2016-10-25T01:34:07.867Z,956.34
2016-10-25T01:35:07.652Z,956.34
2016-10-25T01:36:08.324Z,956.44
2016-10-25T01:37:08.075Z,956.44
2016-10-25T01:38:07.817Z,956.49
2016-10-25T01:39:07.924Z,956.51
2016-10-25T01:40:07.638Z,956.52
2016-10-25T01:41:08.406Z,956.58
2016-10-25T01:42:08.080Z,956.56
2016-10-25T01:43:07.631Z,956.58
2016-10-25T01:44:08.010Z,956.54
2016-10-25T01:45:07.656Z,956.55
2016-10-25T01:46:08.368Z,956.51
2016-10-25T01:47:09.632Z,956.56
2016-10-25T01:48:08.339Z,956.60
2016-10-25T01:49:08.228Z,956.65
2016-10-25T01:50:07.847Z,956.64
2016-10-25T01:51:07.762Z,956.67
2016-10-25T01:52:07.438Z,956.68
2016-10-25T01:53:08.154Z,956.72
2016-10-25T01:54:07.819Z,956.74
2016-10-25T01:55:08.447Z,956.76
2016-10-25T01:56:07.658Z,956.78
2016-10-25T01:57:08.195Z,956.80
2016-10-25T01:58:08.090Z,956.79
2016-10-25T01:59:07.728Z,956.79
2016-10-25T02:00:07.391Z,956.79
2016-10-25T02:01:07.979Z,956.81
2016-10-25T02:02:07.660Z,956.81
2016-10-25T02:03:07.982Z,956.86
2016-10-25T02:04:07.533Z,956.88
2016-10-25T02:05:08.035Z,956.93
2016-10-25T02:06:07.712Z,956.93
2016-10-25T02:07:08.410Z,956.96
2016-10-25T02:08:08.420Z,956.96
2016-10-25T02:09:08.051Z,956.98
2016-10-25T02:10:22.118Z,956.99
2016-10-25T02:11:07.703Z,956.98
2016-10-25T02:12:08.333Z,957.00
2016-10-25T02:13:07.849Z,957.06
2016-10-25T02:14:07.355Z,957.03
2016-10-25T02:15:07.907Z,957.08
2016-10-25T02:16:07.686Z,957.12
2016-10-25T02:17:08.513Z,957.18
2016-10-25T02:18:08.127Z,957.21
2016-10-25T02:19:09.221Z,957.28
2016-10-25T02:20:07.872Z,957.28
2016-10-25T02:21:07.717Z,957.35
2016-10-25T02:22:08.349Z,957.36
2016-10-25T02:23:07.820Z,957.36
2016-10-25T02:24:07.382Z,957.37
2016-10-25T02:25:08.240Z,957.39
2016-10-25T02:26:07.818Z,957.37
2016-10-25T02:27:07.249Z,957.48
2016-10-25T02:28:07.849Z,957.56
2016-10-25T02:29:07.628Z,957.57
2016-10-25T02:30:08.103Z,957.71
2016-10-25T02:31:07.936Z,957.73
2016-10-25T02:32:08.188Z,957.83
2016-10-25T02:33:07.846Z,957.91
2016-10-25T02:34:07.377Z,957.93
2016-10-25T02:35:07.962Z,957.98
2016-10-25T02:36:07.443Z,958.03
2016-10-25T02:37:08.137Z,958.04
2016-10-25T02:38:07.710Z,958.02
2016-10-25T02:39:08.424Z,957.95
2016-10-25T02:40:08.520Z,957.92
2016-10-25T02:41:07.788Z,957.91
2016-10-25T02:42:07.446Z,957.89
2016-10-25T02:43:08.708Z,957.92
2016-10-25T02:44:08.434Z,957.89
2016-10-25T02:45:08.365Z,957.83
2016-10-25T02:46:08.755Z,957.85
2016-10-25T02:47:07.357Z,957.87
2016-10-25T02:48:09.035Z,957.90
2016-10-25T02:49:07.622Z,957.90
2016-10-25T02:50:08.162Z,957.93
2016-10-25T02:51:07.775Z,957.92
2016-10-25T02:52:07.301Z,957.91
2016-10-25T02:53:07.930Z,957.93
2016-10-25T02:54:07.515Z,957.96
2016-10-25T02:55:08.078Z,957.95
2016-10-25T02:56:07.650Z,957.92
2016-10-25T02:57:08.240Z,957.92
2016-10-25T02:58:07.870Z,957.90
2016-10-25T02:59:07.457Z,957.92
2016-10-25T03:00:08.061Z,957.93
2016-10-25T03:01:07.630Z,957.99
2016-10-25T03:02:08.168Z,958.02
2016-10-25T03:03:07.834Z,958.10
2016-10-25T03:04:07.423Z,958.12
2016-10-25T03:05:08.010Z,958.16
2016-10-25T03:06:07.516Z,958.12
2016-10-25T03:07:08.142Z,958.13
2016-10-25T03:08:07.875Z,958.11
2016-10-25T03:09:22.591Z,958.06
2016-10-25T03:10:08.232Z,958.06
2016-10-25T03:11:07.806Z,958.08
2016-10-25T03:12:07.488Z,958.10
2016-10-25T03:13:08.009Z,958.08
2016-10-25T03:14:07.617Z,958.06
2016-10-25T03:15:08.339Z,958.09
2016-10-25T03:16:08.477Z,958.13
2016-10-25T03:17:08.226Z,958.14
2016-10-25T03:18:07.834Z,958.13
2016-10-25T03:19:07.408Z,958.15
2016-10-25T03:20:07.980Z,958.15
2016-10-25T03:21:07.608Z,958.16
2016-10-25T03:22:08.205Z,958.16
2016-10-25T03:23:07.802Z,958.17
2016-10-25T03:24:07.413Z,958.17
2016-10-25T03:25:07.928Z,958.12
2016-10-25T03:26:07.632Z,958.09
2016-10-25T03:27:08.224Z,958.05
2016-10-25T03:28:07.965Z,958.12
2016-10-25T03:29:07.622Z,958.10
2016-10-25T03:30:08.186Z,958.10
2016-10-25T03:31:08.340Z,958.15
2016-10-25T03:32:07.952Z,958.16
2016-10-25T03:33:08.034Z,958.18
2016-10-25T03:34:07.660Z,958.12
2016-10-25T03:35:08.287Z,958.12
2016-10-25T03:36:07.847Z,958.16
2016-10-25T03:37:07.408Z,958.16
2016-10-25T03:38:07.958Z,958.12
2016-10-25T03:39:07.519Z,958.09
2016-10-25T03:40:08.131Z,958.12
2016-10-25T03:41:07.704Z,958.10
2016-10-25T03:42:08.149Z,958.06
2016-10-25T03:43:07.881Z,958.09
2016-10-25T03:44:07.578Z,958.07
2016-10-25T03:45:08.216Z,958.04
2016-10-25T03:46:07.944Z,958.04
2016-10-25T03:47:07.516Z,958.06
2016-10-25T03:48:08.078Z,958.06
2016-10-25T03:49:07.764Z,958.02
2016-10-25T03:50:07.369Z,958.01
2016-10-25T03:51:07.938Z,957.96
2016-10-25T03:52:07.490Z,957.92
2016-10-25T03:53:08.150Z,957.97
2016-10-25T03:54:07.730Z,958.04
2016-10-25T03:55:08.276Z,958.11
2016-10-25T03:56:07.838Z,958.19
2016-10-25T03:57:07.445Z,958.25
2016-10-25T03:58:08.204Z,958.25
2016-10-25T03:59:07.944Z,958.28
2016-10-25T04:00:07.600Z,958.28
2016-10-25T04:01:08.252Z,958.23
2016-10-25T04:02:08.295Z,958.21
2016-10-25T04:03:07.871Z,958.17
2016-10-25T04:04:08.291Z,958.10
2016-10-25T04:05:08.180Z,958.03
2016-10-25T04:06:08.064Z,958.03
2016-10-25T04:07:07.778Z,958.05
2016-10-25T04:08:07.310Z,958.05
2016-10-25T04:09:07.839Z,958.12
2016-10-25T04:10:07.440Z,958.18
2016-10-25T04:11:07.927Z,958.25
2016-10-25T04:12:07.550Z,958.23
2016-10-25T04:13:08.104Z,958.19
2016-10-25T04:14:08.108Z,958.21
2016-10-25T04:15:07.767Z,958.24
2016-10-25T04:16:07.435Z,958.25
2016-10-25T04:17:08.662Z,958.27
2016-10-25T04:18:08.341Z,958.24
2016-10-25T04:19:07.953Z,958.22
2016-10-25T04:20:07.537Z,958.16
2016-10-25T04:21:08.111Z,958.13
2016-10-25T04:22:07.719Z,958.05
2016-10-25T04:23:08.296Z,958.07
2016-10-25T04:24:07.927Z,958.01
2016-10-25T04:25:10.443Z,958.09
2016-10-25T04:26:08.615Z,958.11
2016-10-25T04:27:08.323Z,958.21
2016-10-25T04:28:07.894Z,958.24
2016-10-25T04:29:07.395Z,958.23
2016-10-25T04:30:07.895Z,958.26
2016-10-25T04:31:07.373Z,958.31
2016-10-25T04:32:07.941Z,958.35
2016-10-25T04:33:07.455Z,958.39
2016-10-25T04:34:07.990Z,958.29
2016-10-25T04:35:07.550Z,958.23
2016-10-25T04:36:08.554Z,958.29
2016-10-25T04:37:09.111Z,958.33
2016-10-25T04:38:08.487Z,958.35
2016-10-25T04:39:07.792Z,958.37
2016-10-25T04:40:07.485Z,958.37
2016-10-25T04:41:08.171Z,958.37
2016-10-25T04:42:07.771Z,958.43
2016-10-25T04:43:08.371Z,958.46
2016-10-25T04:44:08.845Z,958.48
2016-10-25T04:45:07.492Z,958.43
2016-10-25T04:46:08.059Z,958.42
2016-10-25T04:47:07.569Z,958.41
2016-10-25T04:48:08.163Z,958.43
2016-10-25T04:49:07.930Z,958.45
2016-10-25T04:50:07.964Z,958.39
2016-10-25T04:51:07.562Z,958.44
2016-10-25T04:52:09.076Z,958.40
2016-10-25T04:53:07.744Z,958.40
2016-10-25T04:54:07.368Z,958.38
2016-10-25T04:55:08.421Z,958.39
2016-10-25T04:56:08.861Z,958.38
2016-10-25T04:57:07.485Z,958.45
2016-10-25T04:58:08.169Z,958.42
2016-10-25T04:59:07.876Z,958.48
2016-10-25T05:00:09.244Z,958.48
2016-10-25T05:01:07.870Z,958.49
2016-10-25T05:02:07.367Z,958.59
2016-10-25T05:03:08.026Z,958.60
2016-10-25T05:04:07.564Z,958.61
2016-10-25T05:05:08.275Z,958.65
2016-10-25T05:06:07.827Z,958.68
2016-10-25T05:07:07.355Z,958.69
2016-10-25T05:08:08.053Z,958.70
2016-10-25T05:09:21.220Z,958.71
2016-10-25T05:10:09.983Z,958.71
2016-10-25T05:11:08.158Z,958.66
2016-10-25T05:12:07.782Z,958.69
2016-10-25T05:13:07.769Z,958.70
2016-10-25T05:14:07.425Z,958.68
2016-10-25T05:15:08.101Z,958.68
2016-10-25T05:16:07.689Z,958.74
2016-10-25T05:17:08.433Z,958.79
2016-10-25T05:18:08.063Z,958.83
2016-10-25T05:19:07.656Z,958.90
2016-10-25T05:20:22.842Z,958.90
2016-10-25T05:21:07.553Z,958.95
2016-10-25T05:22:09.092Z,959.02
2016-10-25T05:23:07.656Z,959.04
2016-10-25T05:24:08.406Z,959.06
2016-10-25T05:25:08.112Z,959.07
2016-10-25T05:26:08.296Z,959.15
2016-10-25T05:27:08.587Z,959.17
2016-10-25T05:28:08.225Z,959.12
2016-10-25T05:29:07.846Z,959.13
2016-10-25T05:30:07.400Z,959.17
2016-10-25T05:31:07.916Z,959.16
2016-10-25T05:32:07.613Z,959.20
2016-10-25T05:33:08.155Z,959.29
2016-10-25T05:34:07.705Z,959.29
2016-10-25T05:35:08.477Z,959.36
2016-10-25T05:36:08.026Z,959.43
2016-10-25T05:37:07.520Z,959.49
2016-10-25T05:38:07.691Z,959.47
2016-10-25T05:39:08.317Z,959.47
2016-10-25T05:40:07.972Z,959.48
2016-10-25T05:41:07.816Z,959.52
2016-10-25T05:42:07.536Z,959.49
2016-10-25T05:43:08.255Z,959.53
2016-10-25T05:44:07.793Z,959.55
2016-10-25T05:45:07.450Z,959.60
2016-10-25T05:46:07.722Z,959.56
2016-10-25T05:47:08.448Z,959.55
2016-10-25T05:48:08.019Z,959.57
2016-10-25T05:49:07.757Z,959.53
2016-10-25T05:50:07.469Z,959.56
2016-10-25T05:51:08.182Z,959.55
2016-10-25T05:52:08.652Z,959.55
2016-10-25T05:53:08.675Z,959.52
2016-10-25T05:54:08.344Z,959.53
2016-10-25T05:55:07.877Z,959.55
2016-10-25T05:56:07.506Z,959.51
2016-10-25T05:57:08.003Z,959.62
2016-10-25T05:58:07.562Z,959.60
2016-10-25T05:59:08.114Z,959.61
2016-10-25T06:00:07.688Z,959.61
2016-10-25T06:01:08.388Z,959.65
2016-10-25T06:02:08.026Z,959.63
2016-10-25T06:03:07.751Z,959.68
2016-10-25T06:04:07.346Z,959.79
2016-10-25T06:05:07.861Z,959.76
2016-10-25T06:06:07.374Z,959.78
2016-10-25T06:07:08.055Z,959.84
2016-10-25T06:08:07.826Z,959.85
2016-10-25T06:09:07.499Z,959.83
2016-10-25T06:10:08.166Z,959.89
2016-10-25T06:11:07.663Z,959.92
2016-10-25T06:12:08.222Z,959.85
2016-10-25T06:13:07.879Z,959.89
2016-10-25T06:14:07.543Z,959.94
2016-10-25T06:15:08.115Z,959.91
2016-10-25T06:16:08.484Z,959.91
2016-10-25T06:17:08.221Z,959.90
2016-10-25T06:18:07.866Z,959.89
2016-10-25T06:19:07.389Z,959.80
2016-10-25T06:20:07.964Z,959.76
2016-10-25T06:21:07.597Z,959.65
2016-10-25T06:22:08.041Z,959.71
2016-10-25T06:23:07.264Z,959.97
2016-10-25T06:24:07.933Z,960.12
2016-10-25T06:25:07.543Z,960.16
2016-10-25T06:26:07.732Z,960.27
2016-10-25T06:27:09.421Z,960.28
2016-10-25T06:28:08.120Z,960.28
2016-10-25T06:29:07.810Z,960.17
2016-10-25T06:30:07.340Z,960.18
2016-10-25T06:31:07.953Z,960.11
2016-10-25T06:32:07.480Z,960.00
2016-10-25T06:33:08.055Z,959.85
2016-10-25T06:34:07.663Z,959.81
2016-10-25T06:35:08.289Z,959.82
2016-10-25T06:36:08.093Z,959.82
2016-10-25T06:37:07.770Z,959.81
2016-10-25T06:38:07.317Z,959.79
2016-10-25T06:39:07.837Z,959.85
2016-10-25T06:40:07.311Z,959.89
2016-10-25T06:41:07.871Z,959.86
2016-10-25T06:42:07.525Z,959.86
2016-10-25T06:43:08.163Z,959.89
2016-10-25T06:44:07.741Z,959.90
2016-10-25T06:45:08.306Z,959.93
2016-10-25T06:46:07.985Z,959.99
2016-10-25T06:47:07.528Z,960.00
2016-10-25T06:48:08.065Z,960.07
2016-10-25T06:49:07.550Z,960.10
2016-10-25T06:50:08.122Z,960.16
2016-10-25T06:51:07.714Z,960.18
2016-10-25T06:52:08.279Z,960.21
2016-10-25T06:53:07.932Z,960.23
2016-10-25T06:54:07.431Z,960.22
2016-10-25T06:55:07.932Z,960.24
2016-10-25T06:56:07.542Z,960.16
2016-10-25T06:57:08.596Z,960.16
2016-10-25T06:58:08.142Z,960.12
2016-10-25T06:59:07.790Z,960.16
2016-10-25T07:00:07.355Z,960.18
2016-10-25T07:01:07.951Z,960.15
2016-10-25T07:02:07.447Z,960.17
2016-10-25T07:03:08.122Z,960.18
2016-10-25T07:04:07.761Z,960.22
2016-10-25T07:05:07.252Z,960.18
2016-10-25T07:06:07.888Z,960.11
2016-10-25T07:07:07.459Z,960.19
2016-10-25T07:08:08.050Z,960.20
2016-10-25T07:09:08.221Z,960.20
2016-10-25T07:10:07.851Z,960.26
2016-10-25T07:11:07.424Z,960.18
2016-10-25T07:12:08.027Z,960.15
2016-10-25T07:13:07.557Z,960.14
2016-10-25T07:14:08.135Z,960.11
2016-10-25T07:15:07.777Z,960.07
2016-10-25T07:16:07.313Z,959.99
2016-10-25T07:17:08.075Z,960.01
2016-10-25T07:18:07.811Z,959.97
2016-10-25T07:19:07.535Z,959.94
2016-10-25T07:20:08.100Z,959.87
2016-10-25T07:21:07.612Z,959.86
2016-10-25T07:22:08.172Z,959.87
2016-10-25T07:23:07.761Z,959.89
2016-10-25T07:24:07.300Z,959.85
2016-10-25T07:25:07.826Z,959.86
2016-10-25T07:26:07.469Z,959.82
2016-10-25T07:27:08.457Z,959.79
2016-10-25T07:28:08.053Z,959.77
2016-10-25T07:29:07.652Z,959.76
2016-10-25T07:30:08.298Z,959.76
2016-10-25T07:31:08.167Z,959.75
2016-10-25T07:32:07.953Z,959.76
2016-10-25T07:33:07.479Z,959.81
2016-10-25T07:34:08.196Z,959.84
2016-10-25T07:35:07.758Z,959.81
2016-10-25T07:36:07.323Z,959.88
2016-10-25T07:37:07.911Z,959.94
2016-10-25T07:38:07.664Z,959.98
2016-10-25T07:39:08.158Z,959.99
2016-10-25T07:40:07.625Z,960.01
2016-10-25T07:41:08.273Z,960.12
2016-10-25T07:42:08.765Z,960.14
2016-10-25T07:43:07.391Z,960.17
2016-10-25T07:44:08.895Z,960.23
2016-10-25T07:45:07.549Z,960.21
2016-10-25T07:46:08.187Z,960.24
2016-10-25T07:47:07.877Z,960.26
2016-10-25T07:48:07.464Z,960.29
2016-10-25T07:49:08.115Z,960.34
2016-10-25T07:50:07.647Z,960.32
2016-10-25T07:51:08.179Z,960.35
2016-10-25T07:52:07.871Z,960.37
2016-10-25T07:53:07.486Z,960.45
2016-10-25T07:54:08.086Z,960.49
2016-10-25T07:55:07.643Z,960.58
2016-10-25T07:56:08.157Z,960.57
2016-10-25T07:57:07.725Z,960.56
2016-10-25T07:58:08.365Z,960.60
2016-10-25T07:59:08.038Z,960.54
2016-10-25T08:00:07.654Z,960.54
2016-10-25T08:01:08.279Z,960.50
2016-10-25T08:02:07.842Z,960.49
2016-10-25T08:03:07.708Z,960.52
2016-10-25T08:04:08.297Z,960.51
2016-10-25T08:05:07.882Z,960.55
2016-10-25T08:06:07.440Z,960.53
2016-10-25T08:07:08.047Z,960.51
2016-10-25T08:08:07.659Z,960.53
2016-10-25T08:09:08.160Z,960.48
2016-10-25T08:10:07.655Z,960.48
2016-10-25T08:11:08.347Z,960.45
2016-10-25T08:12:08.979Z,960.48
2016-10-25T08:13:07.493Z,960.50
2016-10-25T08:14:08.058Z,960.46
2016-10-25T08:15:07.855Z,960.39
2016-10-25T08:16:14.769Z,960.42
2016-10-25T08:17:07.597Z,960.39
2016-10-25T08:18:08.144Z,960.41
2016-10-25T08:19:07.816Z,960.42
2016-10-25T08:20:07.282Z,960.42
2016-10-25T08:21:07.885Z,960.47
2016-10-25T08:22:07.391Z,960.43
2016-10-25T08:23:07.869Z,960.44
2016-10-25T08:24:07.674Z,960.43
2016-10-25T08:25:08.239Z,960.42
2016-10-25T08:26:07.744Z,960.46
2016-10-25T08:27:07.366Z,960.47
2016-10-25T08:28:07.948Z,960.52
2016-10-25T08:29:08.195Z,960.56
2016-10-25T08:30:08.027Z,960.56
2016-10-25T08:31:08.080Z,960.56
2016-10-25T08:32:07.733Z,960.48
2016-10-25T08:33:07.583Z,960.54
2016-10-25T08:34:08.258Z,960.57
2016-10-25T08:35:08.128Z,960.59
2016-10-25T08:36:07.758Z,960.60
2016-10-25T08:37:07.324Z,960.60
2016-10-25T08:38:07.824Z,960.63
2016-10-25T08:39:07.478Z,960.64
2016-10-25T08:40:08.569Z,960.63
2016-10-25T08:41:08.278Z,960.65
2016-10-25T08:42:08.804Z,960.70
2016-10-25T08:43:07.491Z,960.69
2016-10-25T08:44:08.079Z,960.73
2016-10-25T08:45:07.606Z,960.73
2016-10-25T08:46:08.269Z,960.73
2016-10-25T08:47:07.939Z,960.73
2016-10-25T08:48:07.960Z,960.73
2016-10-25T08:49:07.655Z,960.72
2016-10-25T08:50:08.419Z,960.67
2016-10-25T08:51:08.118Z,960.71
2016-10-25T08:52:07.630Z,960.68
2016-10-25T08:53:08.255Z,960.69
2016-10-25T08:54:07.931Z,960.72
2016-10-25T08:55:07.435Z,960.65
2016-10-25T08:56:07.985Z,960.64
2016-10-25T08:57:07.517Z,960.60
2016-10-25T08:58:08.070Z,960.57
2016-10-25T08:59:07.621Z,960.54
2016-10-25T09:00:08.153Z,960.51
2016-10-25T09:01:07.731Z,960.47
2016-10-25T09:02:08.316Z,960.44
2016-10-25T09:03:07.973Z,960.43
2016-10-25T09:04:07.551Z,960.33
2016-10-25T09:05:09.344Z,960.33
2016-10-25T09:06:07.616Z,960.34
2016-10-25T09:07:08.303Z,960.32
2016-10-25T09:08:08.158Z,960.31
2016-10-25T09:09:07.772Z,960.31
2016-10-25T09:10:07.389Z,960.37
2016-10-25T09:11:22.722Z,960.37
2016-10-25T09:12:23.921Z,960.38
2016-10-25T09:13:07.681Z,960.30
2016-10-25T09:14:08.431Z,960.33
2016-10-25T09:15:08.118Z,960.28
2016-10-25T09:16:07.590Z,960.33
2016-10-25T09:17:08.334Z,960.34
2016-10-25T09:18:08.095Z,960.34
2016-10-25T09:19:07.889Z,960.36
2016-10-25T09:20:07.467Z,960.37
2016-10-25T09:21:08.141Z,960.36
2016-10-25T09:22:07.829Z,960.41
2016-10-25T09:23:07.314Z,960.42
2016-10-25T09:24:07.967Z,960.41
2016-10-25T09:25:07.593Z,960.44
2016-10-25T09:26:08.227Z,960.42
2016-10-25T09:27:07.897Z,960.44
2016-10-25T09:28:19.399Z,960.39
2016-10-25T09:29:07.599Z,960.35
2016-10-25T09:30:08.258Z,960.37
2016-10-25T09:32:01.558Z,960.31
2016-10-25T09:32:09.516Z,960.31
2016-10-25T09:33:08.221Z,960.30
2016-10-25T09:34:08.119Z,960.33
2016-10-25T09:35:08.090Z,960.32
2016-10-25T09:36:07.648Z,960.28
2016-10-25T09:37:08.299Z,960.33
2016-10-25T09:38:08.203Z,960.33
2016-10-25T09:39:07.988Z,960.39
2016-10-25T09:40:07.755Z,960.38
2016-10-25T09:41:09.859Z,960.40
2016-10-25T09:42:07.443Z,960.42
2016-10-25T09:43:08.049Z,960.42
2016-10-25T09:44:07.680Z,960.40
2016-10-25T09:45:08.427Z,960.42
2016-10-25T09:46:07.984Z,960.41
2016-10-25T09:47:07.639Z,960.40
2016-10-25T09:48:08.192Z,960.41
2016-10-25T09:49:07.857Z,960.39
2016-10-25T09:50:07.806Z,960.46
2016-10-25T09:51:07.377Z,960.41
2016-10-25T09:52:07.980Z,960.40
2016-10-25T09:53:07.396Z,960.37
2016-10-25T09:54:07.856Z,960.37
2016-10-25T09:55:07.363Z,960.37
2016-10-25T09:57:03.105Z,960.41
2016-10-25T09:57:08.285Z,960.39
2016-10-25T09:58:07.899Z,960.41
2016-10-25T09:59:07.480Z,960.45
2016-10-25T10:00:08.152Z,960.42
2016-10-25T10:01:07.713Z,960.41
2016-10-25T10:02:08.406Z,960.40
2016-10-25T10:03:08.009Z,960.40
2016-10-25T10:04:07.601Z,960.42
2016-10-25T10:05:08.249Z,960.45
2016-10-25T10:06:07.820Z,960.46
2016-10-25T10:07:07.370Z,960.44
2016-10-25T10:08:07.944Z,960.43
2016-10-25T10:09:07.463Z,960.36
2016-10-25T10:10:08.044Z,960.39
2016-10-25T10:11:07.668Z,960.39
2016-10-25T10:12:09.149Z,960.38
2016-10-25T10:13:07.792Z,960.45
2016-10-25T10:14:07.369Z,960.41
2016-10-25T10:15:08.064Z,960.33
2016-10-25T10:16:07.680Z,960.37
2016-10-25T10:17:08.730Z,960.35
2016-10-25T10:18:08.427Z,960.34
2016-10-25T10:19:08.203Z,960.34
2016-10-25T10:20:07.707Z,960.33
2016-10-25T10:21:08.364Z,960.37
2016-10-25T10:22:07.863Z,960.34
2016-10-25T10:23:07.592Z,960.37
2016-10-25T10:24:08.569Z,960.34
2016-10-25T10:25:08.248Z,960.35
2016-10-25T10:26:08.079Z,960.33
2016-10-25T10:27:07.570Z,960.37
2016-10-25T10:28:08.151Z,960.42
2016-10-25T10:29:07.919Z,960.49
2016-10-25T10:30:07.468Z,960.46
2016-10-25T10:31:08.207Z,960.46
2016-10-25T10:32:07.845Z,960.49
2016-10-25T10:33:07.388Z,960.44
2016-10-25T10:34:07.870Z,960.45
2016-10-25T10:35:07.346Z,960.46
2016-10-25T10:36:08.267Z,960.44
2016-10-25T10:37:07.734Z,960.46
2016-10-25T10:38:08.373Z,960.45
2016-10-25T10:39:08.130Z,960.45
2016-10-25T10:40:07.707Z,960.47
2016-10-25T10:41:07.640Z,960.49
2016-10-25T10:42:08.390Z,960.48
2016-10-25T10:43:08.058Z,960.50
2016-10-25T10:44:07.558Z,960.49
2016-10-25T10:45:08.183Z,960.53
2016-10-25T10:46:07.730Z,960.52
2016-10-25T10:47:08.337Z,960.53
2016-10-25T10:48:08.635Z,960.50
2016-10-25T10:49:08.311Z,960.48
2016-10-25T10:50:08.355Z,960.48
2016-10-25T10:51:07.888Z,960.44
2016-10-25T10:52:07.942Z,960.45
2016-10-25T10:53:07.439Z,960.43
2016-10-25T10:54:08.419Z,960.47
2016-10-25T10:55:08.086Z,960.40
2016-10-25T10:56:08.365Z,960.42
2016-10-25T10:57:08.116Z,960.36
2016-10-25T10:58:07.704Z,960.42
2016-10-25T10:59:09.045Z,960.39
2016-10-25T11:00:07.637Z,960.42
2016-10-25T11:01:08.296Z,960.42
2016-10-25T11:02:07.424Z,960.41
2016-10-25T11:03:08.098Z,960.42
2016-10-25T11:04:07.579Z,960.44
2016-10-25T11:05:08.707Z,960.42
2016-10-25T11:06:08.285Z,960.40
2016-10-25T11:07:07.913Z,960.41
2016-10-25T11:08:07.409Z,960.43
2016-10-25T11:09:07.878Z,960.48
2016-10-25T11:10:07.472Z,960.44
2016-10-25T11:11:07.963Z,960.46
2016-10-25T11:12:07.501Z,960.47
2016-10-25T11:13:08.126Z,960.43
2016-10-25T11:14:07.724Z,960.41
2016-10-25T11:15:08.487Z,960.40
2016-10-25T11:16:08.211Z,960.44
2016-10-25T11:17:07.949Z,960.42
2016-10-25T11:18:08.536Z,960.41
2016-10-25T11:19:08.066Z,960.38
2016-10-25T11:20:07.653Z,960.41
2016-10-25T11:21:10.203Z,960.41
2016-10-25T11:22:07.822Z,960.40
2016-10-25T11:23:07.324Z,960.38
2016-10-25T11:24:08.566Z,960.38
2016-10-25T11:25:07.528Z,960.38
2016-10-25T11:26:08.326Z,960.37
2016-10-25T11:27:08.253Z,960.39
2016-10-25T11:28:08.712Z,960.40
2016-10-25T11:29:09.174Z,960.34
2016-10-25T11:30:07.945Z,960.31
2016-10-25T11:31:07.788Z,960.34
2016-10-25T11:32:07.335Z,960.34
2016-10-25T11:33:09.578Z,960.34
2016-10-25T11:34:08.241Z,960.37
2016-10-25T11:35:08.042Z,960.33
2016-10-25T11:36:08.469Z,960.32
2016-10-25T11:37:07.806Z,960.33
2016-10-25T11:38:07.866Z,960.29
2016-10-25T11:39:07.613Z,960.30
2016-10-25T11:40:08.383Z,960.34
2016-10-25T11:41:08.084Z,960.32
2016-10-25T11:42:07.993Z,960.33
2016-10-25T11:43:07.480Z,960.32
2016-10-25T11:44:08.979Z,960.29
2016-10-25T11:45:07.610Z,960.28
2016-10-25T11:46:25.905Z,960.30
2016-10-25T11:47:10.680Z,960.30
2016-10-25T11:48:08.359Z,960.26
2016-10-25T11:49:08.535Z,960.35
2016-10-25T11:50:08.325Z,960.31
2016-10-25T11:51:07.950Z,960.31
2016-10-25T11:52:09.814Z,960.32
2016-10-25T11:53:07.580Z,960.29
2016-10-25T11:54:08.217Z,960.33
2016-10-25T11:55:07.901Z,960.28
2016-10-25T11:56:07.678Z,960.31
2016-10-25T11:57:08.424Z,960.32
2016-10-25T11:58:08.068Z,960.28
2016-10-25T11:59:07.685Z,960.33
2016-10-25T12:00:08.359Z,960.25
2016-10-25T12:01:07.940Z,960.22
2016-10-25T12:02:07.605Z,960.20
2016-10-25T12:03:08.455Z,960.21
2016-10-25T12:04:08.639Z,960.17
2016-10-25T12:05:07.380Z,960.18
2016-10-25T12:06:08.008Z,960.19
2016-10-25T12:07:07.667Z,960.17
2016-10-25T12:08:08.374Z,960.22
2016-10-25T12:09:08.222Z,960.16
2016-10-25T12:10:08.020Z,960.20
2016-10-25T12:11:07.578Z,960.16
2016-10-25T12:12:40.264Z,960.15
2016-10-25T12:13:08.871Z,960.16
2016-10-25T12:14:09.204Z,960.16
2016-10-25T12:15:09.568Z,960.09
2016-10-25T12:16:08.203Z,960.08
2016-10-25T12:17:09.151Z,960.07
2016-10-25T12:18:07.396Z,959.99
2016-10-25T12:19:08.939Z,959.99
2016-10-25T12:20:08.505Z,960.01
2016-10-25T12:21:08.132Z,960.05
2016-10-25T12:22:07.798Z,959.99
2016-10-25T12:23:07.378Z,960.04
2016-10-25T12:24:07.847Z,960.06
2016-10-25T12:25:07.299Z,960.08
2016-10-25T12:26:08.088Z,960.13
2016-10-25T12:27:07.592Z,960.13
2016-10-25T12:28:08.121Z,960.10